Time;durP1;ratioP1;P1;durP2;ratioP2;P2;SDS_P1;SDS_P2;PMS_P1;PMS_P2;Temp;Humidity;BMP_temperature;BMP_pressure;BME280_temperature;BME280_humidity;BME280_pressure;Samples;Min_cycle;Max_cycle;Signal;HPM_P1;HPM_P2
2022/08/26 00:00:15;;;;;;;35.67;23.60;;;;;;;;;;5110448;28;20045;-61
2022/08/26 00:02:41;;;;;;;38.88;24.35;;;;;;;;;;5103097;28;20476;-61
2022/08/26 00:05:07;;;;;;;34.25;23.17;;;;;;;;;;5069801;28;20051;-61
2022/08/26 00:07:33;;;;;;;33.42;23.40;;;;;;;;;;5097683;28;20048;-61
2022/08/26 00:09:59;;;;;;;36.30;23.73;;;;;;;;;;5075348;28;20048;-62
2022/08/26 00:12:25;;;;;;;40.28;22.67;;;;;;;;;;5095255;28;20047;-61
2022/08/26 00:14:51;;;;;;;36.55;22.13;;;;;;;;;;5103395;28;20124;-61
2022/08/26 00:17:20;;;;;;;35.20;21.67;;;;;;;;;;5077347;28;20047;-61
2022/08/26 00:19:46;;;;;;;34.53;21.65;;;;;;;;;;5113015;28;20476;-61
2022/08/26 00:22:12;;;;;;;36.80;21.58;;;;;;;;;;5090508;28;20404;-61
2022/08/26 00:24:38;;;;;;;30.30;19.63;;;;;;;;;;5093011;28;20047;-61
2022/08/26 00:27:05;;;;;;;31.98;19.35;;;;;;;;;;5073018;28;20062;-61
2022/08/26 00:29:33;;;;;;;31.13;18.83;;;;;;;;;;5078393;28;20062;-61
2022/08/26 00:32:00;;;;;;;29.92;18.17;;;;;;;;;;5100763;28;20093;-61
2022/08/26 00:34:26;;;;;;;27.73;17.13;;;;;;;;;;5113034;28;20407;-61
2022/08/26 00:36:54;;;;;;;29.45;15.35;;;;;;;;;;5082149;28;20501;-62
2022/08/26 00:39:20;;;;;;;28.08;15.48;;;;;;;;;;5103645;28;20127;-61
2022/08/26 00:41:47;;;;;;;23.70;15.10;;;;;;;;;;5099121;28;20047;-62
2022/08/26 00:44:13;;;;;;;27.35;15.40;;;;;;;;;;5099496;28;20048;-61
2022/08/26 00:46:44;;;;;;;23.60;14.10;;;;;;;;;;5109713;28;20457;-61
2022/08/26 00:49:16;;;;;;;25.25;14.88;;;;;;;;;;5075517;28;20044;-62
2022/08/26 00:51:48;;;;;;;19.92;14.18;;;;;;;;;;5086155;28;20040;-62
2022/08/26 00:54:15;;;;;;;24.00;12.60;;;;;;;;;;5067763;28;20079;-62
2022/08/26 00:56:46;;;;;;;24.27;13.13;;;;;;;;;;5095255;28;20040;-61
2022/08/26 00:59:13;;;;;;;26.73;13.23;;;;;;;;;;5070404;28;20096;-61
2022/08/26 01:01:40;;;;;;;19.70;13.25;;;;;;;;;;5092390;28;20079;-61
2022/08/26 01:04:08;;;;;;;24.73;13.00;;;;;;;;;;5108691;28;20116;-62
2022/08/26 01:06:34;;;;;;;22.90;12.48;;;;;;;;;;5083120;28;20474;-61
2022/08/26 01:09:00;;;;;;;19.85;12.20;;;;;;;;;;5095614;28;20051;-61
2022/08/26 01:11:26;;;;;;;19.85;10.90;;;;;;;;;;5078980;28;20112;-61
2022/08/26 01:13:55;;;;;;;24.73;11.15;;;;;;;;;;5091847;28;20048;-61
2022/08/26 01:16:24;;;;;;;22.48;10.73;;;;;;;;;;5075156;28;20052;-62
2022/08/26 01:18:51;;;;;;;24.65;11.07;;;;;;;;;;5075485;28;20703;-61
2022/08/26 01:21:54;;;;;;;21.02;10.27;;;20.60;99.90;;;;;;5060266;28;20399;-61
2022/08/26 01:24:21;;;;;;;22.40;9.35;;;;;;;;;;5054788;28;20570;-62
2022/08/26 01:26:47;;;;;;;18.17;8.75;;;;;;;;;;5094124;28;20109;-62
2022/08/26 01:29:18;;;;;;;21.55;10.98;;;;;;;;;;5069713;28;20713;-61
2022/08/26 01:32:04;;;;;;;20.05;7.72;;;;;;;;;;5084905;28;20130;-61
2022/08/26 01:34:35;;;;;;;18.50;8.25;;;;;;;;;;5099751;28;20479;-62
2022/08/26 01:37:04;;;;;;;12.60;8.27;;;;;;;;;;5105542;28;20418;-61
2022/08/26 01:39:34;;;;;;;14.43;7.80;;;;;;;;;;5104281;28;20097;-61
2022/08/26 01:42:00;;;;;;;16.27;7.90;;;;;;;;;;5085129;28;20487;-62
2022/08/26 01:44:29;;;;;;;14.50;7.13;;;;;;;;;;5100039;28;20040;-62
2022/08/26 01:46:56;;;;;;;14.85;6.93;;;;;;;;;;5091619;28;20189;-62
2022/08/26 01:49:23;;;;;;;15.57;5.68;;;;;;;;;;5074469;28;20051;-62
2022/08/26 01:51:50;;;;;;;11.85;6.18;;;;;;;;;;5075114;28;20058;-61
2022/08/26 01:54:16;;;;;;;20.92;6.18;;;;;;;;;;5073635;28;20131;-62
2022/08/26 01:56:43;;;;;;;13.30;5.20;;;;;;;;;;5094877;28;20142;-63
2022/08/26 01:59:10;;;;;;;11.55;5.15;;;;;;;;;;5104772;28;20542;-62
2022/08/26 02:01:36;;;;;;;12.73;4.90;;;;;;;;;;5091106;28;20734;-62
2022/08/26 02:04:24;;;;;;;11.82;4.47;;;;;;;;;;5077175;28;20076;-62
2022/08/26 02:06:50;;;;;;;14.43;5.32;;;;;;;;;;5089722;28;20075;-62
2022/08/26 02:09:18;;;;;;;10.13;3.53;;;;;;;;;;5088516;28;20385;-61
2022/08/26 02:11:44;;;;;;;10.85;3.63;;;;;;;;;;5102645;28;20055;-61
2022/08/26 02:14:21;;;;;;;11.55;3.30;;;;;;;;;;5086383;28;20075;-61
2022/08/26 02:16:49;;;;;;;16.42;4.30;;;;;;;;;;5093392;28;20075;-61
2022/08/26 02:19:27;;;;;;;11.77;3.78;;;;;;;;;;5068758;28;20156;-61
2022/08/26 02:21:53;;;;;;;14.48;4.10;;;;;;;;;;5102471;28;20048;-61
2022/08/26 02:24:22;;;;;;;13.82;3.40;;;;;;;;;;5102130;28;20040;-61
2022/08/26 02:26:48;;;;;;;14.95;3.75;;;;;;;;;;5115156;28;20050;-64
2022/08/26 02:29:22;;;;;;;9.60;3.50;;;;;;;;;;5075425;28;20114;-62
2022/08/26 02:31:48;;;;;;;8.05;3.15;;;;;;;;;;5089507;28;20055;-63
2022/08/26 02:34:15;;;;;;;11.32;3.50;;;;;;;;;;5103231;28;20047;-62
2022/08/26 02:36:42;;;;;;;10.30;2.83;;;;;;;;;;5087654;28;20040;-62
2022/08/26 02:39:08;;;;;;;9.50;2.42;;;;;;;;;;5075758;28;20526;-62
2022/08/26 02:41:34;;;;;;;8.27;2.58;;;;;;;;;;5111471;28;20483;-62
2022/08/26 02:44:00;;;;;;;10.55;2.67;;;;;;;;;;5096153;28;20040;-61
2022/08/26 02:46:26;;;;;;;10.82;2.00;;;;;;;;;;5091512;28;20048;-62
2022/08/26 02:48:52;;;;;;;8.55;2.10;;;;;;;;;;5070935;28;20142;-61
2022/08/26 02:51:18;;;;;;;10.95;3.00;;;;;;;;;;5098020;28;20169;-61
2022/08/26 02:53:44;;;;;;;11.05;2.17;;;;;;;;;;5077224;28;20385;-62
2022/08/26 02:56:10;;;;;;;11.63;2.42;;;;;;;;;;5064482;28;20556;-61
2022/08/26 02:58:36;;;;;;;11.38;2.53;;;;;;;;;;5113214;28;20048;-62
2022/08/26 03:01:02;;;;;;;12.40;1.90;;;;;;;;;;5105823;28;20040;-61
2022/08/26 03:03:29;;;;;;;13.35;2.17;;;;;;;;;;5097545;28;20514;-61
2022/08/26 03:05:55;;;;;;;9.80;2.03;;;;;;;;;;5091913;28;20488;-62
2022/08/26 03:08:21;;;;;;;9.63;2.70;;;;;;;;;;5093214;28;20043;-62
2022/08/26 03:10:47;;;;;;;9.60;1.60;;;;;;;;;;5083915;28;20479;-62
2022/08/26 03:13:13;;;;;;;10.38;1.83;;;;;;;;;;5094879;28;20044;-62
2022/08/26 03:15:40;;;;;;;6.85;1.73;;;;;;;;;;5080052;28;20134;-62
2022/08/26 03:18:06;;;;;;;9.07;2.10;;;;;;;;;;5104362;28;20047;-61
2022/08/26 03:20:32;;;;;;;11.55;1.90;;;;;;;;;;5112571;28;20048;-61
2022/08/26 03:22:59;;;;;;;9.32;1.80;;;;;;;;;;5078575;28;20114;-62
2022/08/26 03:25:25;;;;;;;8.80;1.88;;;;;;;;;;5094977;28;20053;-62
2022/08/26 03:27:51;;;;;;;6.63;1.65;;;;;;;;;;5058119;28;20044;-62
2022/08/26 03:33:03;;;;;;;8.73;1.95;;;;;;;;;;5080522;28;20044;-61
2022/08/26 03:35:29;;;;;;;6.68;1.80;;;;;;;;;;5091616;28;20492;-61
2022/08/26 03:37:55;;;;;;;9.40;1.65;;;;;;;;;;5084008;28;20052;-61
2022/08/26 03:40:22;;;;;;;15.50;3.20;;;;;;;;;;5101320;28;20050;-61
2022/08/26 03:42:48;;;;;;;11.90;2.78;;;;;;;;;;5094887;28;20142;-61
2022/08/26 03:45:15;;;;;;;8.18;1.52;;;;;;;;;;5112320;28;20047;-61
2022/08/26 03:47:41;;;;;;;9.77;2.05;;;;;;;;;;5094375;28;20044;-61
2022/08/26 03:50:08;;;;;;;13.40;1.73;;;;;;;;;;5092752;28;20047;-61
2022/08/26 03:52:35;;;;;;;8.95;2.17;;;;;;;;;;5095516;28;20126;-61
2022/08/26 03:55:01;;;;;;;9.63;1.85;;;;;;;;;;5091915;28;20043;-62
2022/08/26 03:57:30;;;;;;;11.20;2.05;;;;;;;;;;5108326;28;20050;-61
2022/08/26 03:59:56;;;;;;;10.70;2.13;;;;;;;;;;5065109;28;20048;-61
2022/08/26 04:02:22;;;;;;;15.60;3.03;;;;;;;;;;5096308;28;20067;-61
2022/08/26 04:04:48;;;;;;;13.57;1.60;;;;;;;;;;5074462;28;20492;-62
2022/08/26 04:07:14;;;;;;;13.90;3.15;;;;;;;;;;5092319;28;20050;-61
2022/08/26 04:09:40;;;;;;;10.05;2.03;;;;;;;;;;5113128;28;20514;-61
2022/08/26 04:12:06;;;;;;;11.68;1.75;;;;;;;;;;5105427;28;20483;-61
2022/08/26 04:14:34;;;;;;;15.52;2.45;;;;;;;;;;5074419;28;20055;-61
2022/08/26 04:17:01;;;;;;;13.00;2.45;;;;;;;;;;5094105;28;20451;-61
2022/08/26 04:19:27;;;;;;;15.40;1.77;;;;;;;;;;5093940;28;20044;-61
2022/08/26 04:21:54;;;;;;;16.13;2.53;;;;;;;;;;5111152;28;20044;-61
2022/08/26 04:24:21;;;;;;;11.45;2.03;;;;;;;;;;5073316;28;20070;-61
2022/08/26 04:26:47;;;;;;;14.23;2.45;;;;;;;;;;5080147;28;20040;-62
2022/08/26 04:29:22;;;;;;;12.77;2.13;;;;;;;;;;5100021;28;20094;-61
2022/08/26 04:31:49;;;;;;;20.23;3.33;;;;;;;;;;5112708;28;20051;-61
2022/08/26 04:34:15;;;;;;;16.45;2.78;;;;;;;;;;5104749;28;20044;-61
2022/08/26 04:36:41;;;;;;;13.90;2.83;;;;;;;;;;5091183;28;20064;-61
2022/08/26 04:39:10;;;;;;;14.88;2.83;;;;;;;;;;5098937;28;20160;-61
2022/08/26 04:41:37;;;;;;;17.70;2.38;;;;;;;;;;5104170;28;20471;-62
2022/08/26 04:44:05;;;;;;;11.98;2.60;;;;;;;;;;5091504;28;20070;-61
2022/08/26 04:46:31;;;;;;;15.60;2.70;;;;;;;;;;5089044;28;20110;-62
2022/08/26 04:48:57;;;;;;;11.70;2.28;;;;;;;;;;5113756;28;20079;-61
2022/08/26 04:51:26;;;;;;;12.20;2.22;;;;;;;;;;5081416;28;20087;-61
2022/08/26 04:53:53;;;;;;;12.77;2.25;;;;;;;;;;5086170;28;20076;-61
2022/08/26 04:56:19;;;;;;;13.23;3.10;;;;;;;;;;5041378;28;20032;-61
2022/08/26 04:58:45;;;;;;;11.40;2.45;;;;;;;;;;5077078;28;20088;-61
2022/08/26 05:01:11;;;;;;;13.45;2.40;;;;;;;;;;5100109;28;20133;-61
2022/08/26 05:03:37;;;;;;;13.98;2.40;;;;;;;;;;5087136;28;20044;-61
2022/08/26 05:06:04;;;;;;;15.00;2.15;;;;;;;;;;5094720;28;20055;-61
2022/08/26 05:08:30;;;;;;;13.88;2.30;;;;;;;;;;5082170;28;20167;-61
2022/08/26 05:10:56;;;;;;;12.88;2.30;;;;;;;;;;5054543;28;20037;-61
2022/08/26 05:13:24;;;;;;;14.13;3.08;;;;;;;;;;5088040;28;20044;-61
2022/08/26 05:15:50;;;;;;;13.13;2.40;;;;;;;;;;5092774;28;20054;-61
2022/08/26 05:18:19;;;;;;;12.52;1.85;;;;;;;;;;5101819;28;20046;-58
2022/08/26 05:20:47;;;;;;;15.03;2.07;;;;;;;;;;5083635;28;20044;-58
2022/08/26 05:23:13;;;;;;;13.93;2.47;;;;;;;;;;5076335;28;20048;-57
2022/08/26 05:25:41;;;;;;;9.50;2.00;;;;;;;;;;5074410;28;20132;-58
2022/08/26 05:28:08;;;;;;;13.35;2.10;;;;;;;;;;5072439;28;20044;-57
2022/08/26 05:30:35;;;;;;;13.50;2.08;;;;;;;;;;5085659;28;20560;-57
2022/08/26 05:33:02;;;;;;;10.43;2.33;;;;;;;;;;5113054;28;20403;-58
2022/08/26 05:35:30;;;;;;;14.05;2.55;;;;;;;;;;5080428;28;20102;-58
2022/08/26 05:38:07;;;;;;;12.10;2.38;;;;;;;;;;5089988;28;20182;-57
2022/08/26 05:40:34;;;;;;;8.73;1.98;;;;;;;;;;5092490;28;20040;-57
2022/08/26 05:43:00;;;;;;;12.13;2.88;;;;;;;;;;5092115;28;20044;-58
2022/08/26 05:45:26;;;;;;;9.43;2.33;;;;;;;;;;5089403;28;20051;-58
2022/08/26 05:47:53;;;;;;;21.15;3.50;;;;;;;;;;5078424;28;20043;-58
2022/08/26 05:50:20;;;;;;;11.75;2.72;;;;;;;;;;5097207;28;20048;-58
2022/08/26 05:52:49;;;;;;;18.85;3.38;;;;;;;;;;5117037;28;20100;-58
2022/08/26 05:55:16;;;;;;;11.82;2.35;;;;;;;;;;5101753;28;20055;-58
2022/08/26 05:57:42;;;;;;;6.88;2.10;;;;;;;;;;5096623;28;20048;-58
2022/08/26 06:00:09;;;;;;;13.00;2.10;;;;;;;;;;5093008;28;20440;-58
2022/08/26 06:02:38;;;;;;;10.02;2.00;;;;;;;;;;5095678;28;20158;-58
2022/08/26 06:05:04;;;;;;;16.35;2.05;;;;;;;;;;5096438;28;20056;-59
2022/08/26 06:10:15;;;;;;;10.52;1.90;;;;;;;;;;5097384;28;20043;-61
2022/08/26 06:12:41;;;;;;;8.32;1.45;;;;;;;;;;5077052;28;20046;-58
2022/08/26 06:15:07;;;;;;;9.57;2.60;;;;;;;;;;5077587;28;20044;-58
2022/08/26 06:17:33;;;;;;;10.93;1.75;;;;;;;;;;5096143;28;20044;-58
2022/08/26 06:19:59;;;;;;;5.38;1.80;;;;;;;;;;5096999;28;20047;-58
2022/08/26 06:27:55;;;;;;;11.55;2.45;;;;;;;;;;5087910;28;20075;-58
2022/08/26 06:30:21;;;;;;;8.65;2.20;;;;;;;;;;5096471;28;20129;-58
2022/08/26 06:32:47;;;;;;;10.50;2.53;;;;;;;;;;5094906;28;20048;-58
2022/08/26 06:35:13;;;;;;;13.13;2.55;;;;;;;;;;5087483;28;20507;-58
2022/08/26 06:37:41;;;;;;;7.88;1.73;;;;;;;;;;5075748;28;20048;-58
2022/08/26 06:40:08;;;;;;;9.48;1.88;;;;;;;;;;5062663;28;20036;-58
2022/08/26 06:42:34;;;;;;;10.57;1.95;;;;;;;;;;5083965;28;20129;-59
2022/08/26 06:45:00;;;;;;;10.63;2.00;;;;;;;;;;5077659;28;20044;-59
2022/08/26 06:47:26;;;;;;;15.00;2.47;;;;;;;;;;5096681;28;20039;-58
2022/08/26 06:49:52;;;;;;;8.65;1.50;;;;;;;;;;5094409;28;20044;-58
2022/08/26 06:52:18;;;;;;;14.90;2.00;;;;;;;;;;5094025;28;20537;-58
2022/08/26 06:54:44;;;;;;;13.30;2.05;;;;;;;;;;5095454;28;20051;-58
2022/08/26 06:57:10;;;;;;;10.57;1.50;;;;;;;;;;5072943;28;20044;-58
2022/08/26 06:59:36;;;;;;;10.25;2.13;;;;;;;;;;5085112;28;20044;-58
2022/08/26 07:02:04;;;;;;;11.52;2.10;;;;;;;;;;5078994;28;20052;-58
2022/08/26 07:04:30;;;;;;;14.00;2.17;;;;;;;;;;5078074;28;20442;-58
2022/08/26 07:06:56;;;;;;;8.50;1.40;;;;;;;;;;5096609;28;20051;-58
2022/08/26 07:09:24;;;;;;;10.00;1.88;;;;;;;;;;5100698;28;20123;-59
2022/08/26 07:11:50;;;;;;;9.55;1.52;;;;;;;;;;5094795;28;20048;-58
2022/08/26 07:14:17;;;;;;;11.18;2.00;;;;;;;;;;5094937;28;20372;-57
2022/08/26 07:16:44;;;;;;;10.50;1.80;;;;;;;;;;5095219;28;20052;-58
2022/08/26 07:19:10;;;;;;;12.23;2.72;;;;;;;;;;5092143;28;20049;-57
2022/08/26 07:21:36;;;;;;;9.02;1.30;;;;;;;;;;5057513;28;20499;-58
2022/08/26 07:24:03;;;;;;;13.32;1.95;;;;;;;;;;5100093;28;20044;-57
2022/08/26 07:26:30;;;;;;;10.90;1.55;;;;;;;;;;5080182;28;20109;-58
2022/08/26 07:28:57;;;;;;;7.88;2.33;;;;;;;;;;5074063;28;20064;-57
2022/08/26 07:31:24;;;;;;;11.10;1.55;;;;;;;;;;5093744;28;20571;-57
2022/08/26 07:33:50;;;;;;;8.63;1.63;;;;;;;;;;5076227;28;20048;-58
2022/08/26 07:36:18;;;;;;;11.07;1.83;;;;;;;;;;5072846;28;20141;-57
2022/08/26 07:38:47;;;;;;;13.13;1.60;;;;;;;;;;5077420;28;20044;-58
2022/08/26 07:41:14;;;;;;;10.57;1.60;;;;;;;;;;5100553;28;20122;-58
2022/08/26 07:43:40;;;;;;;10.73;1.60;;;;;;;;;;5094873;28;20048;-58
2022/08/26 07:46:06;;;;;;;12.57;1.60;;;;;;;;;;5091277;28;20079;-58
2022/08/26 07:48:32;;;;;;;8.93;2.20;;;;;;;;;;5092071;28;20044;-59
2022/08/26 07:50:59;;;;;;;14.88;2.72;;;;;;;;;;5091185;28;20046;-58
2022/08/26 07:53:25;;;;;;;9.77;2.17;;;;;;;;;;5072474;28;20135;-67
2022/08/26 07:55:51;;;;;;;7.55;1.55;;;;;;;;;;5074790;28;20069;-63
2022/08/26 07:58:19;;;;;;;9.43;1.67;;;;;;;;;;5096596;28;20048;-62
2022/08/26 08:00:46;;;;;;;6.75;1.60;;;;;;;;;;5096775;28;20052;-62
2022/08/26 08:03:13;;;;;;;13.25;2.63;;;;;;;;;;5096786;28;20101;-63
2022/08/26 08:05:40;;;;;;;13.77;4.20;;;;;;;;;;5096047;28;20118;-66
2022/08/26 08:08:07;;;;;;;9.50;1.77;;;;;;;;;;5074653;28;20105;-69
2022/08/26 08:10:35;;;;;;;7.35;1.95;;;;;;;;;;5092929;28;20159;-63
2022/08/26 08:13:01;;;;;;;4.45;1.15;;;;;;;;;;5075631;28;20051;-68
2022/08/26 08:15:28;;;;;;;9.35;1.27;;;;;;;;;;5077324;28;20048;-68
2022/08/26 08:17:56;;;;;;;8.02;1.38;;;;;;;;;;5075125;28;20054;-68
2022/08/26 08:20:22;;;;;;;8.05;2.08;;;;;;;;;;5095992;28;20044;-66
2022/08/26 08:22:49;;;;;;;10.93;1.92;;;;;;;;;;5092282;28;20048;-62
2022/08/26 08:25:16;;;;;;;11.35;2.75;;;;;;;;;;5066731;28;20503;-62
2022/08/26 08:27:43;;;;;;;11.57;2.20;;;;;;;;;;5081007;28;20084;-61
2022/08/26 08:30:10;;;;;;;8.02;1.60;;;;;;;;;;5073383;28;20446;-61
2022/08/26 08:32:42;;;;;;;10.10;1.50;;;;;;;;;;5108506;28;20078;-60
2022/08/26 08:35:11;;;;;;;13.55;1.73;;;;;;;;;;5070149;28;20051;-61
2022/08/26 08:37:37;;;;;;;13.38;1.65;;;;;;;;;;5087436;28;20047;-60
2022/08/26 08:40:04;;;;;;;8.80;1.55;;;;;;;;;;5109314;28;20449;-60
2022/08/26 08:42:49;;;;;;;6.88;1.13;;;;;;;;;;5069202;28;20407;-61
2022/08/26 08:45:20;;;;;;;7.55;1.17;;;;;;;;;;5054956;28;20083;-60
2022/08/26 08:47:51;;;;;;;13.05;1.60;;;;;;;;;;5085933;28;20073;-60
2022/08/26 08:50:21;;;;;;;8.57;1.83;;;;;;;;;;5076473;28;20044;-60
2022/08/26 08:52:51;;;;;;;18.02;3.03;;;;;;;;;;5069114;28;20067;-60
2022/08/26 08:55:17;;;;;;;10.23;1.38;;;;;;;;;;5084851;28;20430;-60
2022/08/26 08:57:59;;;;;;;7.53;1.60;;;;;;;;;;5069643;28;20052;-60
2022/08/26 09:00:27;;;;;;;11.68;1.40;;;;;;;;;;5071480;28;20047;-60
2022/08/26 09:02:58;;;;;;;12.38;1.70;;;;;;;;;;5090093;28;20044;-61
2022/08/26 09:05:33;;;;;;;6.00;1.00;;;;;;;;;;5088317;28;20508;-60
2022/08/26 09:08:02;;;;;;;10.57;1.70;;;;;;;;;;5071447;28;20551;-60
2022/08/26 09:10:36;;;;;;;7.75;1.27;;;;;;;;;;5073045;28;20380;-60
2022/08/26 09:13:06;;;;;;;10.10;1.60;;;;;;;;;;5072992;28;20093;-60
2022/08/26 09:15:55;;;;;;;;;;;20.50;99.90;;;;;;5087772;28;20195;-60
2022/08/26 09:18:36;;;;;;;6.32;1.10;;;;;;;;;;5082841;28;19920;-61
2022/08/26 09:21:04;;;;;;;5.57;1.10;;;;;;;;;;5087642;28;20035;-60
2022/08/26 09:23:31;;;;;;;7.05;1.10;;;;;;;;;;5063708;28;20045;-60
2022/08/26 09:25:59;;;;;;;5.72;1.05;;;;;;;;;;5060363;28;20075;-60
2022/08/26 09:28:26;;;;;;;7.60;1.00;;;;;;;;;;5082798;28;20504;-60
2022/08/26 09:31:10;;;;;;;4.53;1.10;;;;;;;;;;5067027;28;20135;-60
2022/08/26 09:33:36;;;;;;;7.13;1.10;;;;;;;;;;5087530;28;20067;-60
2022/08/26 09:36:13;;;;;;;6.03;1.00;;;;;;;;;;5056884;28;20045;-60
2022/08/26 09:38:40;;;;;;;5.93;0.93;;;;;;;;;;5078265;28;20382;-60
2022/08/26 09:41:07;;;;;;;9.85;1.02;;;;;;;;;;5055071;28;20060;-60
2022/08/26 09:43:33;;;;;;;8.95;1.23;;;;;;;;;;5078750;28;20083;-60
2022/08/26 09:46:21;;;;;;;5.85;0.90;;;;;;;;;;5064911;28;20048;-60
2022/08/26 09:48:50;;;;;;;5.55;0.90;;;;;;;;;;5065094;28;20101;-60
2022/08/26 09:51:22;;;;;;;8.35;1.17;;;;;;;;;;5046404;28;20040;-61
2022/08/26 09:53:51;;;;;;;7.72;1.33;;;;;;;;;;5067498;28;20056;-60
2022/08/26 09:56:24;;;;;;;7.90;1.27;;;;;;;;;;5084680;28;20518;-60
2022/08/26 09:58:50;;;;;;;8.98;1.40;;;;;;;;;;5086394;28;20052;-60
2022/08/26 10:01:22;;;;;;;6.70;1.45;;;;;;;;;;5074456;28;20484;-60
2022/08/26 10:03:50;;;;;;;10.93;1.90;;;;;;;;;;5084474;28;20044;-60
2022/08/26 10:06:16;;;;;;;4.07;1.20;;;;;;;;;;5097238;28;20513;-61
2022/08/26 10:08:44;;;;;;;12.02;1.92;;;;;;;;;;5092293;28;20048;-61
2022/08/26 10:11:24;;;;;;;9.70;1.13;;;;;;;;;;5092843;28;20048;-60
2022/08/26 10:14:08;;;;;;;6.60;1.20;;;;;;;;;;5087080;28;20047;-60
2022/08/26 10:16:47;;;;;;;9.15;1.83;;;;;;;;;;5079886;28;20052;-60
2022/08/26 10:19:16;;;;;;;8.52;1.42;;;;;;;;;;5081844;28;20045;-60
2022/08/26 10:21:48;;;;;;;12.30;1.85;;;;;;;;;;5065424;28;20048;-60
2022/08/26 10:24:17;;;;;;;6.60;1.33;;;;;;;;;;5060199;28;20054;-61
2022/08/26 10:27:06;;;;;;;10.40;1.13;;;;;;;;;;5080509;28;20067;-60
2022/08/26 10:29:51;;;;;;;7.00;1.98;;;;;;;;;;5112505;28;20058;-60
2022/08/26 10:32:30;;;;;;;13.77;1.23;;;;;;;;;;5112824;28;20051;-60
2022/08/26 10:34:56;;;;;;;11.27;1.33;;;;;;;;;;5089474;28;20053;-60
2022/08/26 10:37:28;;;;;;;7.28;1.20;;;;;;;;;;5103365;28;20487;-60
2022/08/26 10:40:06;;;;;;;8.75;2.08;;;;;;;;;;5093940;28;21307;-60
2022/08/26 10:42:44;;;;;;;6.07;1.13;;;;;;;;;;5075262;28;20052;-60
2022/08/26 10:45:24;;;;;;;5.38;1.05;;;;;;;;;;5046984;28;20504;-60
2022/08/26 10:47:53;;;;;;;11.20;1.40;;;;;;;;;;5095126;28;20591;-61
2022/08/26 10:50:20;;;;;;;10.00;1.50;;;;;;;;;;5087688;28;20055;-61
2022/08/26 10:52:58;;;;;;;7.10;1.00;;;;;;;;;;5096163;28;20051;-64
2022/08/26 10:55:33;;;;;;;6.50;1.05;;;;;;;;;;5106994;28;20055;-65
2022/08/26 10:58:04;;;;;;;7.35;1.05;;;;;;;;;;5092256;28;20041;-61
2022/08/26 11:03:38;;;;;;;5.38;0.98;;;;;;;;;;5095068;28;20047;-61
2022/08/26 11:06:20;;;;;;;6.00;1.00;;;;;;;;;;5091834;28;20048;-62
2022/08/26 11:08:47;;;;;;;6.40;1.10;;;;;;;;;;5087509;28;20048;-61
2022/08/26 11:11:38;;;;;;;4.78;1.08;;;21.60;99.90;;;;;;5103653;28;20039;-60
2022/08/26 11:14:10;;;;;;;6.50;1.30;;;;;;;;;;5102607;28;20396;-60
2022/08/26 11:16:52;;;;;;;7.90;1.13;;;;;;;;;;5115523;28;20050;-60
2022/08/26 11:19:38;;;;;;;8.15;1.50;;;;;;;;;;5096031;28;20074;-60
2022/08/26 11:22:10;;;;;;;6.22;1.10;;;;;;;;;;5091698;28;20048;-61
2022/08/26 11:24:40;;;;;;;7.60;1.33;;;;;;;;;;5094960;28;20044;-60
2022/08/26 11:27:07;;;;;;;6.35;1.30;;;;;;;;;;5113256;28;20131;-60
2022/08/26 11:29:55;;;;;;;4.75;1.05;;;21.20;99.90;;;;;;5074426;28;20362;-60
2022/08/26 11:32:25;;;;;;;8.02;1.30;;;;;;;;;;5096729;28;20047;-60
2022/08/26 11:34:59;;;;;;;7.53;2.05;;;;;;;;;;5060921;28;20105;-61
2022/08/26 11:37:28;;;;;;;11.23;2.03;;;;;;;;;;5074759;28;20472;-60
2022/08/26 11:39:54;;;;;;;6.80;1.27;;;;;;;;;;5072594;28;20048;-60
2022/08/26 11:42:27;;;;;;;8.90;1.02;;;;;;;;;;5085727;28;20052;-61
2022/08/26 11:44:54;;;;;;;6.07;0.93;;;;;;;;;;5074404;28;20048;-61
2022/08/26 11:47:27;;;;;;;9.23;1.58;;;;;;;;;;5105171;28;20049;-60
2022/08/26 11:50:10;;;;;;;10.70;1.95;;;;;;;;;;5074707;28;20586;-60
2022/08/26 11:52:36;;;;;;;11.98;1.73;;;;;;;;;;5101562;28;20460;-58
2022/08/26 11:55:08;;;;;;;10.68;2.08;;;;;;;;;;5110435;28;20043;-58
2022/08/26 11:57:35;;;;;;;10.30;1.73;;;;;;;;;;5080034;28;20047;-59
2022/08/26 12:00:02;;;;;;;3.85;0.98;;;;;;;;;;5063775;28;20485;-59
2022/08/26 12:02:28;;;;;;;5.43;1.40;;;;;;;;;;5074029;28;20147;-59
2022/08/26 12:04:55;;;;;;;12.48;1.55;;;;;;;;;;5074248;28;20052;-60
2022/08/26 12:07:23;;;;;;;8.43;1.27;;;;;;;;;;5073862;28;20503;-59
2022/08/26 12:09:51;;;;;;;5.68;1.20;;;;;;;;;;5088763;28;20091;-60
2022/08/26 12:12:21;;;;;;;8.65;1.50;;;;;;;;;;5090714;28;20040;-60
2022/08/26 12:14:47;;;;;;;;;;;;;;;;;;5078120;28;20051;-61
2022/08/26 12:17:15;;;;;;;8.15;1.77;;;;;;;;;;5091850;28;20064;-60
2022/08/26 12:19:42;;;;;;;7.50;1.50;;;;;;;;;;5113969;28;20044;-60
2022/08/26 12:22:34;;;;;;;8.07;1.55;;;;;;;;;;5114142;28;20047;-60
2022/08/26 12:25:04;;;;;;;8.23;1.90;;;;;;;;;;5067261;28;20429;-60
2022/08/26 12:27:34;;;;;;;6.55;1.58;;;;;;;;;;5079326;28;20120;-60
2022/08/26 12:30:03;;;;;;;6.03;1.15;;;;;;;;;;5073430;28;20050;-60
2022/08/26 12:32:33;;;;;;;6.22;1.63;;;;;;;;;;5081122;28;20177;-60
2022/08/26 12:35:01;;;;;;;9.38;1.50;;;;;;;;;;5072139;28;20392;-60
2022/08/26 12:37:28;;;;;;;5.47;1.60;;;;;;;;;;5081899;28;20040;-60
2022/08/26 12:39:54;;;;;;;9.02;1.50;;;;;;;;;;5083007;28;20249;-60
2022/08/26 12:42:20;;;;;;;9.13;1.80;;;;;;;;;;5114042;28;20147;-60
2022/08/26 12:44:49;;;;;;;13.32;2.40;;;;;;;;;;5099579;28;20126;-60
2022/08/26 12:47:15;;;;;;;6.70;1.20;;;;;;;;;;5113513;28;20392;-60
2022/08/26 12:49:42;;;;;;;6.53;1.38;;;;;;;;;;5095239;28;20056;-60
2022/08/26 12:52:28;;;;;;;10.25;1.30;;;;;;;;;;5090877;28;20048;-59
2022/08/26 12:54:58;;;;;;;8.60;1.60;;;;;;;;;;5092536;28;20489;-59
2022/08/26 12:57:26;;;;;;;8.18;1.35;;;;;;;;;;5093410;28;20438;-59
2022/08/26 12:59:51;;;;;;;11.35;1.38;;;;;;;;;;5093072;28;20048;-59
2022/08/26 13:02:38;;;;;;;9.30;1.83;;;;;;;;;;5092932;28;20551;-59
2022/08/26 13:05:04;;;;;;;15.68;1.90;;;;;;;;;;5075524;28;20051;-59
2022/08/26 13:07:30;;;;;;;6.57;1.65;;;;;;;;;;5093002;28;20123;-62
2022/08/26 13:09:58;;;;;;;5.30;1.40;;;;;;;;;;5074098;28;20039;-62
2022/08/26 13:12:29;;;;;;;7.03;1.50;;;;;;;;;;5092881;28;20530;-59
2022/08/26 13:14:57;;;;;;;7.32;2.35;;;;;;;;;;5099727;28;20067;-61
2022/08/26 13:17:23;;;;;;;7.07;1.55;;;;;;;;;;5090203;28;20127;-60
2022/08/26 13:19:49;;;;;;;9.75;2.00;;;;;;;;;;5076324;28;20115;-60
2022/08/26 13:22:18;;;;;;;8.05;1.50;;;;;;;;;;5085504;28;20052;-62
2022/08/26 13:24:45;;;;;;;7.47;2.17;;;;;;;;;;5074663;28;20439;-60
2022/08/26 13:27:12;;;;;;;7.40;1.60;;;;;;;;;;5108658;28;20420;-60
2022/08/26 13:29:40;;;;;;;7.43;1.42;;;;;;;;;;5092540;28;20047;-60
2022/08/26 13:32:06;;;;;;;9.95;1.60;;;;;;;;;;5084732;28;20052;-60
2022/08/26 13:34:33;;;;;;;10.40;1.50;;;;;;;;;;5089617;28;20134;-60
2022/08/26 13:36:59;;;;;;;4.55;2.15;;;;;;;;;;5091695;28;20096;-60
2022/08/26 13:39:26;;;;;;;7.32;1.40;;;;;;;;;;5091640;28;20055;-60
2022/08/26 13:41:52;;;;;;;7.95;2.17;;;;;;;;;;5088849;28;20036;-60
2022/08/26 13:44:19;;;;;;;9.65;1.38;;;;;;;;;;5090978;28;20054;-60
2022/08/26 13:46:45;;;;;;;5.78;1.30;;;;;;;;;;5088474;28;20080;-61
2022/08/26 13:49:11;;;;;;;6.03;1.23;;;;;;;;;;5090961;28;20380;-60
2022/08/26 13:51:37;;;;;;;8.07;1.50;;;;;;;;;;5091487;28;20407;-61
2022/08/26 13:54:04;;;;;;;7.22;1.67;;;;;;;;;;5086839;28;20051;-60
2022/08/26 13:56:30;;;;;;;7.65;1.73;;;;;;;;;;5064665;28;20051;-62
2022/08/26 13:58:58;;;;;;;8.77;2.38;;;;;;;;;;5055518;28;20583;-62
2022/08/26 14:01:24;;;;;;;6.00;1.58;;;;;;;;;;5102732;28;20123;-61
2022/08/26 14:03:51;;;;;;;4.93;1.42;;;;;;;;;;5102646;28;20075;-61
2022/08/26 14:06:17;;;;;;;6.50;1.30;;;;;;;;;;5107754;28;20040;-63
2022/08/26 14:08:43;;;;;;;8.35;1.30;;;;;;;;;;5114568;28;20047;-60
2022/08/26 14:11:10;;;;;;;7.43;1.08;;;;;;;;;;5090002;28;20419;-58
2022/08/26 14:13:37;;;;;;;4.13;1.13;;;;;;;;;;5088371;28;20048;-59
2022/08/26 14:16:04;;;;;;;4.20;0.93;;;;;;;;;;5059143;28;20431;-59
2022/08/26 14:18:34;;;;;;;7.63;1.55;;;;;;;;;;5075826;28;20098;-61
2022/08/26 14:21:00;;;;;;;6.47;1.33;;;;;;;;;;5075943;28;20045;-61
2022/08/26 14:23:26;;;;;;;2.90;0.90;;;;;;;;;;5075516;28;20051;-61
2022/08/26 14:25:52;;;;;;;5.80;1.50;;;;;;;;;;5078630;28;20044;-60
2022/08/26 14:28:19;;;;;;;10.23;1.10;;;;;;;;;;5091341;28;20395;-61
2022/08/26 14:30:48;;;;;;;5.50;0.90;;;;;;;;;;5090722;28;20134;-59
2022/08/26 14:33:15;;;;;;;6.53;1.38;;;;;;;;;;5075351;28;20064;-64
2022/08/26 14:35:41;;;;;;;9.10;1.75;;;;;;;;;;5075311;28;20519;-60
2022/08/26 14:38:07;;;;;;;4.53;1.30;;;;;;;;;;5057288;28;20067;-59
2022/08/26 14:40:34;;;;;;;7.90;1.30;;;;;;;;;;5067217;28;20044;-60
2022/08/26 14:43:00;;;;;;;6.53;1.00;;;;;;;;;;5094155;28;20047;-60
2022/08/26 14:45:27;;;;;;;7.88;1.52;;;;;;;;;;5110118;28;20044;-61
2022/08/26 14:47:55;;;;;;;5.93;1.20;;;;;;;;;;5111234;28;20047;-59
2022/08/26 14:50:22;;;;;;;6.78;1.27;;;;;;;;;;5041270;28;20434;-62
2022/08/26 14:55:35;;;;;;;3.13;1.15;;;;;;;;;;5096238;28;20056;-59
2022/08/26 14:58:01;;;;;;;7.10;1.75;;;;;;;;;;5082246;28;20049;-64